createdAt,value
2023-04-27T10:00:20.674Z,96.68
2023-04-27T10:03:12.756Z,96.65
2023-04-27T10:05:58.797Z,96.65
2023-04-27T10:08:26.794Z,96.90
2023-04-27T10:10:53.884Z,96.53
2023-04-27T10:13:26.578Z,96.95
2023-04-27T10:15:54.400Z,96.47
2023-04-27T10:18:31.217Z,96.40
2023-04-27T10:21:10.554Z,96.06
2023-04-27T10:23:47.028Z,95.47
2023-04-27T10:26:21.857Z,95.24
2023-04-27T10:29:04.833Z,94.34
2023-04-27T10:31:31.994Z,93.96
2023-04-27T10:34:11.798Z,93.69
2023-04-27T10:36:41.059Z,93.05
2023-04-27T10:39:18.865Z,92.83
2023-04-27T10:41:54.548Z,92.43
2023-04-27T10:44:28.769Z,91.99
2023-04-27T10:47:02.000Z,91.18
2023-04-27T10:49:30.422Z,90.42
2023-04-27T10:51:59.201Z,89.86
2023-04-27T10:54:28.678Z,88.93
2023-04-27T10:57:11.556Z,89.43
2023-04-27T10:59:51.232Z,89.40
2023-04-27T11:02:25.513Z,89.41
2023-04-27T11:04:52.659Z,88.63
2023-04-27T11:07:27.866Z,87.93
2023-04-27T11:09:55.258Z,87.52
2023-04-27T11:12:22.662Z,87.10
2023-04-27T11:14:49.787Z,86.48
2023-04-27T11:17:16.786Z,85.63
2023-04-27T11:19:47.676Z,85.41
2023-04-27T11:22:19.130Z,84.53
2023-04-27T11:24:48.126Z,84.42
2023-04-27T11:27:18.278Z,83.30
2023-04-27T11:29:45.865Z,82.95
2023-04-27T11:32:20.975Z,83.54
2023-04-27T11:34:56.071Z,81.66
2023-04-27T11:37:26.593Z,82.04
2023-04-27T11:39:54.889Z,81.35
2023-04-27T11:42:23.913Z,80.56
2023-04-27T11:45:22.283Z,81.13
2023-04-27T11:48:09.462Z,79.90
2023-04-27T11:50:56.579Z,80.36
2023-04-27T11:53:58.636Z,79.43
2023-04-27T11:56:54.702Z,79.11
2023-04-27T11:59:43.180Z,78.66
2023-04-27T12:02:30.358Z,78.91
2023-04-27T12:05:19.641Z,77.79
2023-04-27T12:08:06.753Z,78.03
2023-04-27T12:10:53.979Z,76.89
2023-04-27T12:13:40.985Z,76.66
2023-04-27T12:16:28.311Z,76.31
2023-04-27T12:19:15.586Z,76.98
2023-04-27T12:22:02.665Z,76.14
2023-04-27T12:24:49.584Z,75.87
2023-04-27T12:27:36.670Z,76.08
2023-04-27T12:30:24.089Z,76.57
2023-04-27T12:33:11.313Z,76.17
2023-04-27T12:35:58.569Z,75.67
2023-04-27T12:38:45.430Z,76.19
2023-04-27T12:41:32.583Z,75.53
2023-04-27T12:44:19.826Z,76.41
2023-04-27T12:47:07.644Z,76.12
2023-04-27T12:49:54.777Z,76.47
2023-04-27T12:52:41.805Z,76.01
2023-04-27T12:55:32.900Z,75.94
2023-04-27T12:58:20.630Z,76.43
2023-04-27T13:01:07.592Z,76.02
2023-04-27T13:03:54.876Z,76.50
2023-04-27T13:06:42.406Z,76.79
2023-04-27T13:09:29.542Z,76.80
2023-04-27T13:12:16.771Z,77.39
2023-04-27T13:15:03.761Z,76.93
2023-04-27T13:17:51.377Z,77.17
2023-04-27T13:20:38.780Z,76.80
2023-04-27T13:23:25.932Z,76.76
2023-04-27T13:26:13.103Z,76.68
2023-04-27T13:29:00.754Z,76.67
2023-04-27T13:31:47.854Z,76.27
2023-04-27T13:34:34.813Z,77.14
2023-04-27T13:37:21.740Z,76.97
2023-04-27T13:40:08.859Z,76.75
2023-04-27T13:42:55.971Z,76.61
2023-04-27T13:45:43.159Z,76.97
2023-04-27T13:48:30.144Z,76.27
2023-04-27T13:51:17.471Z,75.96
2023-04-27T13:54:05.469Z,75.33
2023-04-27T13:56:52.547Z,75.56
2023-04-27T13:59:39.537Z,75.68
2023-04-27T14:02:26.673Z,75.31
2023-04-27T14:05:14.788Z,75.19
2023-04-27T14:08:01.881Z,74.88
2023-04-27T14:10:50.018Z,75.34
2023-04-27T14:13:38.444Z,74.95
2023-04-27T14:16:25.883Z,74.73
2023-04-27T14:19:13.071Z,74.86
2023-04-27T14:22:00.244Z,74.65
2023-04-27T14:24:48.875Z,73.94
2023-04-27T14:27:35.974Z,73.79
2023-04-27T14:30:23.333Z,73.97
2023-04-27T14:33:10.413Z,73.38
2023-04-27T14:35:57.555Z,73.59
2023-04-27T14:38:44.815Z,72.76
2023-04-27T14:41:31.918Z,73.08
2023-04-27T14:44:18.961Z,73.06
2023-04-27T14:47:06.055Z,72.65
2023-04-27T14:49:53.132Z,72.58
2023-04-27T14:52:40.203Z,72.41
2023-04-27T14:55:27.941Z,72.13
2023-04-27T14:58:15.028Z,72.62
2023-04-27T15:01:02.321Z,72.40
2023-04-27T15:03:50.000Z,72.23
2023-04-27T15:06:37.150Z,72.15
2023-04-27T15:09:24.354Z,71.78
2023-04-27T15:12:11.397Z,71.74
2023-04-27T15:14:58.585Z,71.33
2023-04-27T15:17:46.190Z,71.13
2023-04-27T15:20:33.513Z,71.52
2023-04-27T15:23:20.514Z,71.29
2023-04-27T15:26:08.460Z,71.03
2023-04-27T15:28:55.585Z,70.48
2023-04-27T15:31:43.489Z,70.11
2023-04-27T15:34:31.251Z,70.40
2023-04-27T15:37:18.329Z,70.04
2023-04-27T15:40:05.485Z,70.02
2023-04-27T15:42:52.720Z,68.68
2023-04-27T15:45:39.734Z,68.67
2023-04-27T15:48:26.840Z,68.24
2023-04-27T15:51:13.896Z,68.11
2023-04-27T15:54:00.996Z,67.95
2023-04-27T15:56:47.908Z,68.64
2023-04-27T15:59:35.051Z,68.53
2023-04-27T16:02:22.488Z,67.76
2023-04-27T16:05:09.851Z,68.03
2023-04-27T16:07:58.066Z,67.86
2023-04-27T16:10:45.125Z,68.04
2023-04-27T16:13:32.107Z,67.90
2023-04-27T16:16:19.206Z,67.95
2023-04-27T16:19:06.321Z,67.93
2023-04-27T16:21:53.444Z,68.12
2023-04-27T16:24:40.386Z,67.68
2023-04-27T16:27:27.749Z,67.84
2023-04-27T16:30:15.202Z,67.73
2023-04-27T16:33:02.201Z,67.90
2023-04-27T16:35:49.304Z,67.57
2023-04-27T16:38:39.068Z,67.49
2023-04-27T16:41:26.422Z,67.01
2023-04-27T16:44:13.558Z,67.21
2023-04-27T16:47:00.756Z,67.09
2023-04-27T16:49:47.834Z,67.35
2023-04-27T16:52:34.730Z,67.53
2023-04-27T16:55:21.957Z,67.16
2023-04-27T16:58:08.973Z,67.05
2023-04-27T17:00:56.208Z,66.80
2023-04-27T17:03:43.519Z,66.78
2023-04-27T17:06:30.689Z,66.84
2023-04-27T17:09:18.098Z,66.69
2023-04-27T17:12:05.174Z,66.41
2023-04-27T17:14:52.088Z,66.22
2023-04-27T17:17:39.305Z,66.44
2023-04-27T17:20:27.190Z,65.87
2023-04-27T17:23:14.166Z,66.27
2023-04-27T17:26:01.112Z,66.00
2023-04-27T17:28:48.203Z,65.65
2023-04-27T17:31:35.807Z,66.17
2023-04-27T17:34:22.982Z,66.13
2023-04-27T17:37:09.905Z,66.10
2023-04-27T17:39:56.946Z,65.97
2023-04-27T17:42:44.310Z,66.12
2023-04-27T17:45:31.392Z,66.14
2023-04-27T17:48:18.889Z,66.20
2023-04-27T17:51:06.010Z,66.30
2023-04-27T17:53:53.125Z,66.38
2023-04-27T17:56:40.104Z,66.02
2023-04-27T17:59:30.065Z,66.21
2023-04-27T18:02:17.070Z,66.03
2023-04-27T18:05:04.077Z,66.22
2023-04-27T18:07:51.182Z,66.10
2023-04-27T18:10:38.102Z,66.52
2023-04-27T18:13:25.182Z,66.19
2023-04-27T18:16:12.490Z,66.30
2023-04-27T18:18:59.384Z,66.98
2023-04-27T18:21:46.422Z,67.02
2023-04-27T18:24:33.339Z,67.49
2023-04-27T18:27:20.436Z,67.59
2023-04-27T18:30:07.342Z,67.62
2023-04-27T18:32:54.819Z,67.02
2023-04-27T18:35:42.195Z,67.24
2023-04-27T18:38:29.450Z,68.20
2023-04-27T18:41:16.453Z,68.64
2023-04-27T18:44:03.390Z,69.21
2023-04-27T18:46:50.410Z,68.47
2023-04-27T18:49:37.521Z,68.51
2023-04-27T18:52:24.854Z,69.40
2023-04-27T18:55:11.776Z,69.74
2023-04-27T18:57:58.777Z,69.12
2023-04-27T19:00:45.931Z,69.98
2023-04-27T19:03:33.265Z,70.03
2023-04-27T19:06:21.319Z,69.89
2023-04-27T19:09:08.573Z,70.34
2023-04-27T19:12:02.858Z,71.10
2023-04-27T19:14:51.503Z,70.74
2023-04-27T19:17:38.643Z,70.88
2023-04-27T19:20:26.382Z,71.47
2023-04-27T19:23:13.445Z,71.01
2023-04-27T19:26:11.948Z,71.13
2023-04-27T19:29:00.637Z,70.71
2023-04-27T19:31:48.028Z,70.75
2023-04-27T19:34:35.052Z,70.70
2023-04-27T19:37:22.138Z,70.59
2023-04-27T19:40:09.192Z,70.73
2023-04-27T19:42:56.182Z,71.03
2023-04-27T19:45:43.167Z,70.91
2023-04-27T19:48:30.303Z,71.80
2023-04-27T19:51:17.235Z,70.92
2023-04-27T19:54:04.308Z,71.35
2023-04-27T19:56:51.483Z,71.30
2023-04-27T19:59:39.343Z,71.43
2023-04-27T20:02:27.130Z,71.79
2023-04-27T20:05:14.620Z,71.86
2023-04-27T20:08:01.994Z,71.77
2023-04-27T20:10:49.194Z,71.07
2023-04-27T20:13:36.178Z,71.43
2023-04-27T20:16:23.510Z,70.96
2023-04-27T20:19:10.476Z,71.04
2023-04-27T20:21:57.446Z,70.48
2023-04-27T20:24:44.432Z,70.63
2023-04-27T20:27:31.342Z,71.58
2023-04-27T20:30:18.341Z,71.58
2023-04-27T20:33:05.432Z,70.55
2023-04-27T20:35:52.445Z,71.36
2023-04-27T20:38:40.249Z,71.76
2023-04-27T20:41:27.294Z,71.88
2023-04-27T20:44:14.933Z,71.25
2023-04-27T20:47:02.206Z,70.66
2023-04-27T20:49:49.328Z,71.18
2023-04-27T20:52:36.432Z,71.45
2023-04-27T20:55:24.597Z,71.94
2023-04-27T20:58:11.576Z,71.28
2023-04-27T21:00:58.580Z,70.98
2023-04-27T21:03:45.847Z,71.95
2023-04-27T21:06:32.914Z,72.46
2023-04-27T21:09:19.891Z,72.30
2023-04-27T21:12:07.012Z,72.32
2023-04-27T21:14:54.321Z,71.56
2023-04-27T21:17:41.780Z,72.58
2023-04-27T21:20:29.376Z,72.14
2023-04-27T21:23:16.345Z,71.86
2023-04-27T21:26:04.801Z,71.56
2023-04-27T21:28:51.882Z,72.50
2023-04-27T21:31:39.035Z,71.69
2023-04-27T21:34:26.125Z,72.56
2023-04-27T21:37:13.069Z,73.41
2023-04-27T21:40:00.224Z,72.86
2023-04-27T21:42:47.197Z,72.86
2023-04-27T21:45:34.217Z,73.62
2023-04-27T21:48:21.785Z,72.55
2023-04-27T21:51:08.894Z,73.18
2023-04-27T21:53:55.982Z,73.03
2023-04-27T21:56:43.131Z,73.36
2023-04-27T21:59:30.300Z,74.05
2023-04-27T22:02:17.476Z,73.95
2023-04-27T22:05:04.548Z,73.03
2023-04-27T22:07:51.694Z,73.95
2023-04-27T22:10:38.700Z,73.46
2023-04-27T22:13:25.702Z,73.90
2023-04-27T22:16:13.759Z,73.66
2023-04-27T22:19:01.099Z,74.58
2023-04-27T22:21:48.203Z,74.52
2023-04-27T22:24:35.281Z,74.04
2023-04-27T22:27:22.746Z,74.85
2023-04-27T22:30:10.668Z,74.81
2023-04-27T22:32:57.874Z,73.98
2023-04-27T22:35:45.023Z,75.14
2023-04-27T22:38:32.015Z,75.14
2023-04-27T22:41:19.029Z,75.33
2023-04-27T22:44:06.032Z,75.50
2023-04-27T22:46:53.211Z,74.62
2023-04-27T22:49:40.377Z,74.46
2023-04-27T22:52:27.508Z,74.40
2023-04-27T22:55:14.480Z,74.75
2023-04-27T22:58:01.587Z,74.61
2023-04-27T23:00:48.577Z,75.42
2023-04-27T23:03:35.745Z,75.39
2023-04-27T23:06:22.832Z,75.72
2023-04-27T23:09:09.989Z,75.39
2023-04-27T23:11:57.094Z,75.72
2023-04-27T23:14:44.346Z,75.80
2023-04-27T23:17:31.436Z,75.87
2023-04-27T23:20:28.195Z,75.57
2023-04-27T23:23:15.815Z,75.52
2023-04-27T23:26:03.039Z,75.79
2023-04-27T23:28:50.206Z,76.15
2023-04-27T23:31:37.556Z,76.20
2023-04-27T23:34:24.487Z,75.84
2023-04-27T23:37:11.762Z,75.93
2023-04-27T23:39:58.935Z,76.22
2023-04-27T23:42:46.143Z,76.08
2023-04-27T23:45:33.244Z,76.59
2023-04-27T23:48:20.311Z,76.59
2023-04-27T23:51:07.239Z,76.52
2023-04-27T23:53:54.377Z,76.80
2023-04-27T23:56:41.222Z,76.30
2023-04-27T23:59:28.286Z,76.94
